Terminal Aerodrome Forecast
Issued by NWS

Home | Current Version | Previous Version | Text Only | Print | Product List | Glossary On
Versions: 1 2 3 4 5 6 7 8 9 10 11 12 13 14 15 16 17 18 19 20 21 22
000
FTUS41 KBGM 220800 AAA
TAFITH
TAF AMD
KITH 220823Z 2208/2306 35005KT 3SM BR OVC002
      TEMPO 2212/2214 5SM BR SCT002 OVC012
     FM221400 33010KT 6SM BR SCT007 OVC015
     FM230000 33010KT 4SM -SHRA BR OVC006=

USA.gov is the U.S. government's official web portal to all federal, state and local government web resources and services.